sensor_id;sensor_type;location;lat;lon;timestamp;P1;durP1;ratioP1;P2;durP2;ratioP2
12663;SDS011;6396;58.490;15.528;2023-07-13T00:01:48;10.03;;;7.07;;
12663;SDS011;6396;58.490;15.528;2023-07-13T00:04:16;8.93;;;6.93;;
12663;SDS011;6396;58.490;15.528;2023-07-13T00:06:44;12.30;;;7.93;;
12663;SDS011;6396;58.490;15.528;2023-07-13T00:09:11;11.27;;;7.43;;
12663;SDS011;6396;58.490;15.528;2023-07-13T00:11:38;10.07;;;7.80;;
12663;SDS011;6396;58.490;15.528;2023-07-13T00:14:06;10.47;;;7.83;;
12663;SDS011;6396;58.490;15.528;2023-07-13T00:16:35;8.97;;;8.07;;
12663;SDS011;6396;58.490;15.528;2023-07-13T00:19:03;8.93;;;7.60;;
12663;SDS011;6396;58.490;15.528;2023-07-13T00:21:31;10.10;;;8.37;;
12663;SDS011;6396;58.490;15.528;2023-07-13T00:23:58;8.50;;;7.53;;
12663;SDS011;6396;58.490;15.528;2023-07-13T00:26:26;10.87;;;7.67;;
12663;SDS011;6396;58.490;15.528;2023-07-13T00:28:53;12.23;;;7.80;;
12663;SDS011;6396;58.490;15.528;2023-07-13T00:31:19;14.70;;;7.43;;
12663;SDS011;6396;58.490;15.528;2023-07-13T00:33:48;11.20;;;7.43;;
12663;SDS011;6396;58.490;15.528;2023-07-13T00:36:15;9.90;;;7.50;;
12663;SDS011;6396;58.490;15.528;2023-07-13T00:38:42;10.40;;;7.83;;
12663;SDS011;6396;58.490;15.528;2023-07-13T00:41:09;12.53;;;8.47;;
12663;SDS011;6396;58.490;15.528;2023-07-13T00:43:36;12.07;;;8.67;;
12663;SDS011;6396;58.490;15.528;2023-07-13T00:46:11;10.93;;;8.07;;
12663;SDS011;6396;58.490;15.528;2023-07-13T00:48:43;9.07;;;7.77;;
12663;SDS011;6396;58.490;15.528;2023-07-13T00:51:14;14.17;;;8.20;;
12663;SDS011;6396;58.490;15.528;2023-07-13T00:53:44;12.83;;;7.50;;
12663;SDS011;6396;58.490;15.528;2023-07-13T00:56:11;12.23;;;7.63;;
12663;SDS011;6396;58.490;15.528;2023-07-13T00:58:38;10.50;;;7.60;;
12663;SDS011;6396;58.490;15.528;2023-07-13T01:01:05;11.20;;;7.53;;
12663;SDS011;6396;58.490;15.528;2023-07-13T01:03:32;10.43;;;7.30;;
12663;SDS011;6396;58.490;15.528;2023-07-13T01:06:00;10.70;;;7.70;;
12663;SDS011;6396;58.490;15.528;2023-07-13T01:08:29;9.67;;;6.97;;
12663;SDS011;6396;58.490;15.528;2023-07-13T01:10:56;9.47;;;6.93;;
12663;SDS011;6396;58.490;15.528;2023-07-13T01:13:24;12.80;;;7.57;;
12663;SDS011;6396;58.490;15.528;2023-07-13T01:15:52;11.57;;;7.33;;
12663;SDS011;6396;58.490;15.528;2023-07-13T01:18:21;8.50;;;6.53;;
12663;SDS011;6396;58.490;15.528;2023-07-13T01:20:52;8.30;;;6.83;;
12663;SDS011;6396;58.490;15.528;2023-07-13T01:23:20;10.47;;;6.90;;
12663;SDS011;6396;58.490;15.528;2023-07-13T01:25:47;8.93;;;7.30;;
12663;SDS011;6396;58.490;15.528;2023-07-13T01:28:14;11.13;;;6.37;;
12663;SDS011;6396;58.490;15.528;2023-07-13T01:30:43;9.33;;;7.10;;
12663;SDS011;6396;58.490;15.528;2023-07-13T01:33:11;8.73;;;6.70;;
12663;SDS011;6396;58.490;15.528;2023-07-13T01:35:38;9.13;;;6.80;;
12663;SDS011;6396;58.490;15.528;2023-07-13T01:38:07;7.30;;;6.60;;
12663;SDS011;6396;58.490;15.528;2023-07-13T01:40:35;12.77;;;8.13;;
12663;SDS011;6396;58.490;15.528;2023-07-13T01:43:02;7.13;;;6.43;;
12663;SDS011;6396;58.490;15.528;2023-07-13T01:45:30;8.37;;;6.80;;
12663;SDS011;6396;58.490;15.528;2023-07-13T01:47:57;10.10;;;6.40;;
12663;SDS011;6396;58.490;15.528;2023-07-13T01:50:23;8.50;;;6.33;;
12663;SDS011;6396;58.490;15.528;2023-07-13T01:52:51;9.80;;;6.77;;
12663;SDS011;6396;58.490;15.528;2023-07-13T01:55:19;9.27;;;6.10;;
12663;SDS011;6396;58.490;15.528;2023-07-13T01:57:47;10.27;;;6.30;;
12663;SDS011;6396;58.490;15.528;2023-07-13T02:00:14;8.87;;;6.73;;
12663;SDS011;6396;58.490;15.528;2023-07-13T02:02:41;11.13;;;7.23;;
12663;SDS011;6396;58.490;15.528;2023-07-13T02:05:09;8.53;;;7.50;;
12663;SDS011;6396;58.490;15.528;2023-07-13T02:07:36;9.07;;;6.70;;
12663;SDS011;6396;58.490;15.528;2023-07-13T02:10:03;9.50;;;7.03;;
12663;SDS011;6396;58.490;15.528;2023-07-13T02:12:32;8.67;;;7.20;;
12663;SDS011;6396;58.490;15.528;2023-07-13T02:14:59;9.17;;;6.70;;
12663;SDS011;6396;58.490;15.528;2023-07-13T02:17:26;7.53;;;6.40;;
12663;SDS011;6396;58.490;15.528;2023-07-13T02:19:53;9.60;;;5.87;;
12663;SDS011;6396;58.490;15.528;2023-07-13T02:22:20;10.10;;;6.47;;
12663;SDS011;6396;58.490;15.528;2023-07-13T02:24:47;11.00;;;6.73;;
12663;SDS011;6396;58.490;15.528;2023-07-13T02:27:14;8.50;;;6.57;;
12663;SDS011;6396;58.490;15.528;2023-07-13T02:29:42;8.77;;;6.93;;
12663;SDS011;6396;58.490;15.528;2023-07-13T02:32:09;7.47;;;6.77;;
12663;SDS011;6396;58.490;15.528;2023-07-13T02:34:36;9.53;;;6.80;;
12663;SDS011;6396;58.490;15.528;2023-07-13T02:37:03;8.33;;;6.13;;
12663;SDS011;6396;58.490;15.528;2023-07-13T02:39:30;8.77;;;6.47;;
12663;SDS011;6396;58.490;15.528;2023-07-13T02:41:58;8.53;;;5.80;;
12663;SDS011;6396;58.490;15.528;2023-07-13T02:44:25;6.77;;;5.87;;
12663;SDS011;6396;58.490;15.528;2023-07-13T02:46:54;7.53;;;6.43;;
12663;SDS011;6396;58.490;15.528;2023-07-13T02:49:20;10.20;;;5.90;;
12663;SDS011;6396;58.490;15.528;2023-07-13T02:51:47;10.10;;;6.23;;
12663;SDS011;6396;58.490;15.528;2023-07-13T02:54:14;8.00;;;6.73;;
12663;SDS011;6396;58.490;15.528;2023-07-13T02:56:41;9.83;;;6.83;;
12663;SDS011;6396;58.490;15.528;2023-07-13T02:59:08;7.17;;;6.47;;
12663;SDS011;6396;58.490;15.528;2023-07-13T03:01:36;9.83;;;6.13;;
12663;SDS011;6396;58.490;15.528;2023-07-13T03:04:04;9.07;;;6.67;;
12663;SDS011;6396;58.490;15.528;2023-07-13T03:06:31;8.97;;;5.77;;
12663;SDS011;6396;58.490;15.528;2023-07-13T03:08:58;11.37;;;6.50;;
12663;SDS011;6396;58.490;15.528;2023-07-13T03:11:25;10.30;;;6.10;;
12663;SDS011;6396;58.490;15.528;2023-07-13T03:13:52;6.83;;;5.50;;
12663;SDS011;6396;58.490;15.528;2023-07-13T03:16:19;7.00;;;6.20;;
12663;SDS011;6396;58.490;15.528;2023-07-13T03:18:46;8.10;;;6.33;;
12663;SDS011;6396;58.490;15.528;2023-07-13T03:21:15;8.30;;;5.43;;
12663;SDS011;6396;58.490;15.528;2023-07-13T03:23:41;11.23;;;5.60;;
12663;SDS011;6396;58.490;15.528;2023-07-13T03:26:09;6.37;;;5.77;;
12663;SDS011;6396;58.490;15.528;2023-07-13T03:28:39;8.47;;;5.67;;
12663;SDS011;6396;58.490;15.528;2023-07-13T03:31:07;7.97;;;5.30;;
12663;SDS011;6396;58.490;15.528;2023-07-13T03:33:35;5.50;;;4.80;;
12663;SDS011;6396;58.490;15.528;2023-07-13T03:36:03;7.13;;;5.27;;
12663;SDS011;6396;58.490;15.528;2023-07-13T03:38:31;6.17;;;5.50;;
12663;SDS011;6396;58.490;15.528;2023-07-13T03:40:59;7.03;;;5.10;;
12663;SDS011;6396;58.490;15.528;2023-07-13T03:43:26;6.17;;;5.20;;
12663;SDS011;6396;58.490;15.528;2023-07-13T03:45:53;8.40;;;5.60;;
12663;SDS011;6396;58.490;15.528;2023-07-13T03:48:19;7.23;;;4.80;;
12663;SDS011;6396;58.490;15.528;2023-07-13T03:50:46;7.63;;;5.50;;
12663;SDS011;6396;58.490;15.528;2023-07-13T03:53:14;7.87;;;6.00;;
12663;SDS011;6396;58.490;15.528;2023-07-13T03:55:42;12.23;;;5.50;;
12663;SDS011;6396;58.490;15.528;2023-07-13T03:58:26;7.30;;;5.40;;
12663;SDS011;6396;58.490;15.528;2023-07-13T04:00:55;5.87;;;5.30;;
12663;SDS011;6396;58.490;15.528;2023-07-13T04:03:23;7.17;;;5.63;;
12663;SDS011;6396;58.490;15.528;2023-07-13T04:05:50;6.63;;;5.20;;
12663;SDS011;6396;58.490;15.528;2023-07-13T04:08:17;6.27;;;5.67;;
12663;SDS011;6396;58.490;15.528;2023-07-13T04:10:45;8.73;;;5.57;;
12663;SDS011;6396;58.490;15.528;2023-07-13T04:13:12;6.10;;;5.50;;
12663;SDS011;6396;58.490;15.528;2023-07-13T04:15:40;7.37;;;5.37;;
12663;SDS011;6396;58.490;15.528;2023-07-13T04:18:06;6.57;;;4.97;;
12663;SDS011;6396;58.490;15.528;2023-07-13T04:20:34;6.80;;;4.83;;
12663;SDS011;6396;58.490;15.528;2023-07-13T04:23:01;7.40;;;5.10;;
12663;SDS011;6396;58.490;15.528;2023-07-13T04:25:27;6.07;;;4.73;;
12663;SDS011;6396;58.490;15.528;2023-07-13T04:27:56;9.73;;;5.53;;
12663;SDS011;6396;58.490;15.528;2023-07-13T04:30:23;8.67;;;5.23;;
12663;SDS011;6396;58.490;15.528;2023-07-13T04:32:50;6.40;;;5.80;;
12663;SDS011;6396;58.490;15.528;2023-07-13T04:35:18;8.07;;;5.40;;
12663;SDS011;6396;58.490;15.528;2023-07-13T04:37:47;8.17;;;4.83;;
12663;SDS011;6396;58.490;15.528;2023-07-13T04:40:15;8.67;;;5.00;;
12663;SDS011;6396;58.490;15.528;2023-07-13T04:42:42;6.50;;;4.87;;
12663;SDS011;6396;58.490;15.528;2023-07-13T04:45:10;9.60;;;5.40;;
12663;SDS011;6396;58.490;15.528;2023-07-13T04:47:38;8.47;;;5.47;;
12663;SDS011;6396;58.490;15.528;2023-07-13T04:50:08;8.10;;;5.37;;
12663;SDS011;6396;58.490;15.528;2023-07-13T04:52:36;9.17;;;5.90;;
12663;SDS011;6396;58.490;15.528;2023-07-13T04:55:04;8.23;;;5.33;;
12663;SDS011;6396;58.490;15.528;2023-07-13T04:57:31;7.07;;;5.43;;
12663;SDS011;6396;58.490;15.528;2023-07-13T04:59:59;8.80;;;5.40;;
12663;SDS011;6396;58.490;15.528;2023-07-13T05:02:27;7.30;;;5.40;;
12663;SDS011;6396;58.490;15.528;2023-07-13T05:04:56;6.50;;;5.17;;
12663;SDS011;6396;58.490;15.528;2023-07-13T05:07:23;8.20;;;5.80;;
12663;SDS011;6396;58.490;15.528;2023-07-13T05:09:51;7.37;;;5.37;;
12663;SDS011;6396;58.490;15.528;2023-07-13T05:12:18;8.47;;;5.13;;
12663;SDS011;6396;58.490;15.528;2023-07-13T05:14:45;7.43;;;5.47;;
12663;SDS011;6396;58.490;15.528;2023-07-13T05:17:13;5.43;;;4.87;;
12663;SDS011;6396;58.490;15.528;2023-07-13T05:19:42;8.57;;;5.00;;
12663;SDS011;6396;58.490;15.528;2023-07-13T05:22:09;9.47;;;4.80;;
12663;SDS011;6396;58.490;15.528;2023-07-13T05:24:36;6.60;;;4.93;;
12663;SDS011;6396;58.490;15.528;2023-07-13T05:27:03;5.70;;;4.67;;
12663;SDS011;6396;58.490;15.528;2023-07-13T05:29:30;6.23;;;4.50;;
12663;SDS011;6396;58.490;15.528;2023-07-13T05:31:57;11.53;;;4.90;;
12663;SDS011;6396;58.490;15.528;2023-07-13T05:34:23;8.47;;;4.47;;
12663;SDS011;6396;58.490;15.528;2023-07-13T05:36:53;6.80;;;4.10;;
12663;SDS011;6396;58.490;15.528;2023-07-13T05:39:19;5.70;;;3.70;;
12663;SDS011;6396;58.490;15.528;2023-07-13T05:41:46;7.13;;;3.93;;
12663;SDS011;6396;58.490;15.528;2023-07-13T05:44:13;9.90;;;4.13;;
12663;SDS011;6396;58.490;15.528;2023-07-13T05:46:40;9.00;;;3.87;;
12663;SDS011;6396;58.490;15.528;2023-07-13T05:49:06;6.53;;;4.27;;
12663;SDS011;6396;58.490;15.528;2023-07-13T05:51:33;6.80;;;4.30;;
12663;SDS011;6396;58.490;15.528;2023-07-13T05:54:01;7.33;;;4.17;;
12663;SDS011;6396;58.490;15.528;2023-07-13T05:56:28;6.20;;;4.10;;
12663;SDS011;6396;58.490;15.528;2023-07-13T05:58:55;6.20;;;4.00;;
12663;SDS011;6396;58.490;15.528;2023-07-13T06:01:23;10.17;;;4.20;;
12663;SDS011;6396;58.490;15.528;2023-07-13T06:03:49;6.13;;;3.80;;
12663;SDS011;6396;58.490;15.528;2023-07-13T06:06:16;4.90;;;3.50;;
12663;SDS011;6396;58.490;15.528;2023-07-13T06:08:43;8.63;;;3.80;;
12663;SDS011;6396;58.490;15.528;2023-07-13T06:11:13;7.57;;;3.73;;
12663;SDS011;6396;58.490;15.528;2023-07-13T06:13:42;4.97;;;3.40;;
12663;SDS011;6396;58.490;15.528;2023-07-13T06:16:08;6.03;;;3.90;;
12663;SDS011;6396;58.490;15.528;2023-07-13T06:18:36;4.50;;;3.77;;
12663;SDS011;6396;58.490;15.528;2023-07-13T06:21:07;6.43;;;3.90;;
12663;SDS011;6396;58.490;15.528;2023-07-13T06:23:35;6.10;;;3.17;;
12663;SDS011;6396;58.490;15.528;2023-07-13T06:26:03;6.87;;;3.80;;
12663;SDS011;6396;58.490;15.528;2023-07-13T06:28:31;5.33;;;3.50;;
12663;SDS011;6396;58.490;15.528;2023-07-13T06:30:59;8.10;;;3.73;;
12663;SDS011;6396;58.490;15.528;2023-07-13T06:33:26;6.90;;;3.43;;
12663;SDS011;6396;58.490;15.528;2023-07-13T06:35:53;6.37;;;3.07;;
12663;SDS011;6396;58.490;15.528;2023-07-13T06:38:21;8.07;;;3.53;;
12663;SDS011;6396;58.490;15.528;2023-07-13T06:40:48;4.63;;;3.30;;
12663;SDS011;6396;58.490;15.528;2023-07-13T06:43:14;6.93;;;3.40;;
12663;SDS011;6396;58.490;15.528;2023-07-13T06:45:43;7.20;;;3.63;;
12663;SDS011;6396;58.490;15.528;2023-07-13T06:48:12;7.17;;;3.70;;
12663;SDS011;6396;58.490;15.528;2023-07-13T06:50:39;6.77;;;4.17;;
12663;SDS011;6396;58.490;15.528;2023-07-13T06:53:07;7.87;;;3.57;;
12663;SDS011;6396;58.490;15.528;2023-07-13T06:55:34;5.43;;;3.10;;
12663;SDS011;6396;58.490;15.528;2023-07-13T06:58:01;5.80;;;3.30;;
12663;SDS011;6396;58.490;15.528;2023-07-13T07:00:27;7.60;;;3.57;;
12663;SDS011;6396;58.490;15.528;2023-07-13T07:02:56;5.57;;;3.80;;
12663;SDS011;6396;58.490;15.528;2023-07-13T07:05:23;5.60;;;3.20;;
12663;SDS011;6396;58.490;15.528;2023-07-13T07:07:50;6.50;;;3.20;;
12663;SDS011;6396;58.490;15.528;2023-07-13T07:10:18;7.00;;;3.10;;
12663;SDS011;6396;58.490;15.528;2023-07-13T07:12:45;4.33;;;2.90;;
12663;SDS011;6396;58.490;15.528;2023-07-13T07:15:12;6.87;;;2.70;;
12663;SDS011;6396;58.490;15.528;2023-07-13T07:17:39;6.70;;;2.80;;
12663;SDS011;6396;58.490;15.528;2023-07-13T07:20:08;7.50;;;2.80;;
12663;SDS011;6396;58.490;15.528;2023-07-13T07:22:36;5.83;;;2.70;;
12663;SDS011;6396;58.490;15.528;2023-07-13T07:25:02;6.20;;;2.63;;
12663;SDS011;6396;58.490;15.528;2023-07-13T07:27:30;4.83;;;2.73;;
12663;SDS011;6396;58.490;15.528;2023-07-13T07:29:56;15.33;;;3.00;;
12663;SDS011;6396;58.490;15.528;2023-07-13T07:32:23;7.10;;;2.57;;
12663;SDS011;6396;58.490;15.528;2023-07-13T07:34:50;6.40;;;2.40;;
12663;SDS011;6396;58.490;15.528;2023-07-13T07:37:18;5.20;;;2.70;;
12663;SDS011;6396;58.490;15.528;2023-07-13T07:39:45;3.47;;;2.40;;
12663;SDS011;6396;58.490;15.528;2023-07-13T07:42:12;5.83;;;2.63;;
12663;SDS011;6396;58.490;15.528;2023-07-13T07:44:39;6.10;;;2.83;;
12663;SDS011;6396;58.490;15.528;2023-07-13T07:47:06;4.53;;;2.73;;
12663;SDS011;6396;58.490;15.528;2023-07-13T07:49:33;6.60;;;2.60;;
12663;SDS011;6396;58.490;15.528;2023-07-13T07:52:00;3.77;;;2.40;;
12663;SDS011;6396;58.490;15.528;2023-07-13T07:54:29;4.43;;;2.17;;
12663;SDS011;6396;58.490;15.528;2023-07-13T07:56:55;3.13;;;2.23;;
12663;SDS011;6396;58.490;15.528;2023-07-13T07:59:22;4.00;;;2.30;;
12663;SDS011;6396;58.490;15.528;2023-07-13T08:01:49;4.20;;;2.10;;
12663;SDS011;6396;58.490;15.528;2023-07-13T08:04:16;4.47;;;2.27;;
12663;SDS011;6396;58.490;15.528;2023-07-13T08:06:43;3.33;;;2.40;;
12663;SDS011;6396;58.490;15.528;2023-07-13T08:09:10;2.83;;;2.00;;
12663;SDS011;6396;58.490;15.528;2023-07-13T08:11:39;4.80;;;2.17;;
12663;SDS011;6396;58.490;15.528;2023-07-13T08:14:05;4.27;;;1.83;;
12663;SDS011;6396;58.490;15.528;2023-07-13T08:16:34;5.93;;;1.93;;
12663;SDS011;6396;58.490;15.528;2023-07-13T08:19:01;4.90;;;2.03;;
12663;SDS011;6396;58.490;15.528;2023-07-13T08:21:29;5.50;;;2.20;;
12663;SDS011;6396;58.490;15.528;2023-07-13T08:23:56;5.37;;;2.07;;
12663;SDS011;6396;58.490;15.528;2023-07-13T08:26:24;3.23;;;1.70;;
12663;SDS011;6396;58.490;15.528;2023-07-13T08:29:04;3.47;;;1.63;;
12663;SDS011;6396;58.490;15.528;2023-07-13T08:31:49;3.67;;;1.70;;
12663;SDS011;6396;58.490;15.528;2023-07-13T08:34:23;3.07;;;1.80;;
12663;SDS011;6396;58.490;15.528;2023-07-13T08:36:53;3.63;;;1.90;;
12663;SDS011;6396;58.490;15.528;2023-07-13T08:39:25;3.83;;;1.57;;
12663;SDS011;6396;58.490;15.528;2023-07-13T08:41:57;4.57;;;2.20;;
12663;SDS011;6396;58.490;15.528;2023-07-13T08:44:33;3.17;;;2.10;;
12663;SDS011;6396;58.490;15.528;2023-07-13T08:47:14;5.30;;;2.40;;
12663;SDS011;6396;58.490;15.528;2023-07-13T08:49:52;5.17;;;2.03;;
12663;SDS011;6396;58.490;15.528;2023-07-13T08:52:26;2.80;;;1.80;;
12663;SDS011;6396;58.490;15.528;2023-07-13T08:55:02;6.23;;;2.07;;
12663;SDS011;6396;58.490;15.528;2023-07-13T08:57:35;2.93;;;1.97;;
12663;SDS011;6396;58.490;15.528;2023-07-13T09:02:59;3.50;;;1.70;;
12663;SDS011;6396;58.490;15.528;2023-07-13T09:05:29;4.93;;;1.77;;
12663;SDS011;6396;58.490;15.528;2023-07-13T09:08:07;3.67;;;1.80;;
12663;SDS011;6396;58.490;15.528;2023-07-13T09:10:48;4.37;;;1.80;;
12663;SDS011;6396;58.490;15.528;2023-07-13T09:13:21;4.67;;;2.03;;
12663;SDS011;6396;58.490;15.528;2023-07-13T09:15:56;3.30;;;1.70;;
12663;SDS011;6396;58.490;15.528;2023-07-13T09:18:26;5.97;;;2.00;;
12663;SDS011;6396;58.490;15.528;2023-07-13T09:20:57;4.53;;;1.70;;
12663;SDS011;6396;58.490;15.528;2023-07-13T09:23:29;2.37;;;1.73;;
12663;SDS011;6396;58.490;15.528;2023-07-13T09:25:59;2.80;;;1.57;;
12663;SDS011;6396;58.490;15.528;2023-07-13T09:28:29;5.27;;;1.70;;
12663;SDS011;6396;58.490;15.528;2023-07-13T09:31:06;3.80;;;1.87;;
12663;SDS011;6396;58.490;15.528;2023-07-13T09:33:37;4.47;;;2.17;;
12663;SDS011;6396;58.490;15.528;2023-07-13T09:36:09;3.17;;;2.00;;
12663;SDS011;6396;58.490;15.528;2023-07-13T09:38:45;4.83;;;1.90;;
12663;SDS011;6396;58.490;15.528;2023-07-13T09:41:17;2.90;;;1.80;;
12663;SDS011;6396;58.490;15.528;2023-07-13T09:44:02;2.90;;;2.03;;
12663;SDS011;6396;58.490;15.528;2023-07-13T09:46:38;4.03;;;1.97;;
12663;SDS011;6396;58.490;15.528;2023-07-13T09:49:07;2.90;;;1.70;;
12663;SDS011;6396;58.490;15.528;2023-07-13T09:52:11;2.60;;;1.90;;
12663;SDS011;6396;58.490;15.528;2023-07-13T09:54:45;3.87;;;2.00;;
12663;SDS011;6396;58.490;15.528;2023-07-13T09:57:14;4.07;;;2.10;;
12663;SDS011;6396;58.490;15.528;2023-07-13T09:59:43;3.83;;;2.40;;
12663;SDS011;6396;58.490;15.528;2023-07-13T10:02:25;3.53;;;1.97;;
12663;SDS011;6396;58.490;15.528;2023-07-13T10:04:56;4.33;;;2.33;;
12663;SDS011;6396;58.490;15.528;2023-07-13T10:07:24;6.90;;;2.57;;
12663;SDS011;6396;58.490;15.528;2023-07-13T10:09:52;6.60;;;1.90;;
12663;SDS011;6396;58.490;15.528;2023-07-13T10:12:20;5.87;;;2.40;;
12663;SDS011;6396;58.490;15.528;2023-07-13T10:14:48;5.43;;;2.27;;
12663;SDS011;6396;58.490;15.528;2023-07-13T10:17:19;3.57;;;1.83;;
12663;SDS011;6396;58.490;15.528;2023-07-13T10:19:52;5.23;;;2.10;;
12663;SDS011;6396;58.490;15.528;2023-07-13T10:22:21;3.10;;;2.00;;
12663;SDS011;6396;58.490;15.528;2023-07-13T10:24:53;4.23;;;2.13;;
12663;SDS011;6396;58.490;15.528;2023-07-13T10:27:23;5.57;;;2.23;;
12663;SDS011;6396;58.490;15.528;2023-07-13T10:30:01;3.77;;;2.17;;
12663;SDS011;6396;58.490;15.528;2023-07-13T10:32:39;3.43;;;1.70;;
12663;SDS011;6396;58.490;15.528;2023-07-13T10:35:08;3.43;;;2.00;;
12663;SDS011;6396;58.490;15.528;2023-07-13T10:37:47;2.23;;;1.70;;
12663;SDS011;6396;58.490;15.528;2023-07-13T10:40:18;2.53;;;1.90;;
12663;SDS011;6396;58.490;15.528;2023-07-13T10:42:50;4.03;;;1.90;;
12663;SDS011;6396;58.490;15.528;2023-07-13T10:45:21;4.50;;;2.27;;
12663;SDS011;6396;58.490;15.528;2023-07-13T10:47:51;3.63;;;2.07;;
12663;SDS011;6396;58.490;15.528;2023-07-13T10:50:21;3.47;;;2.20;;
12663;SDS011;6396;58.490;15.528;2023-07-13T10:52:51;2.50;;;1.57;;
12663;SDS011;6396;58.490;15.528;2023-07-13T10:55:34;4.17;;;2.33;;
12663;SDS011;6396;58.490;15.528;2023-07-13T10:58:10;4.57;;;2.27;;
12663;SDS011;6396;58.490;15.528;2023-07-13T11:00:48;5.30;;;4.33;;
12663;SDS011;6396;58.490;15.528;2023-07-13T11:03:19;3.40;;;2.27;;
12663;SDS011;6396;58.490;15.528;2023-07-13T11:05:48;2.90;;;2.20;;
12663;SDS011;6396;58.490;15.528;2023-07-13T11:08:18;4.30;;;2.27;;
12663;SDS011;6396;58.490;15.528;2023-07-13T11:10:51;4.17;;;2.40;;
12663;SDS011;6396;58.490;15.528;2023-07-13T11:19:39;6.20;;;2.47;;
12663;SDS011;6396;58.490;15.528;2023-07-13T11:25:28;4.80;;;2.30;;
12663;SDS011;6396;58.490;15.528;2023-07-13T11:28:06;3.93;;;2.33;;
12663;SDS011;6396;58.490;15.528;2023-07-13T11:30:43;3.33;;;2.20;;
12663;SDS011;6396;58.490;15.528;2023-07-13T11:33:15;6.50;;;2.53;;
12663;SDS011;6396;58.490;15.528;2023-07-13T11:35:48;2.70;;;2.10;;
12663;SDS011;6396;58.490;15.528;2023-07-13T11:38:20;4.27;;;2.50;;
12663;SDS011;6396;58.490;15.528;2023-07-13T11:40:51;4.13;;;2.20;;
12663;SDS011;6396;58.490;15.528;2023-07-13T11:43:20;2.30;;;2.10;;
12663;SDS011;6396;58.490;15.528;2023-07-13T11:45:48;2.60;;;1.97;;
12663;SDS011;6396;58.490;15.528;2023-07-13T11:48:23;4.60;;;2.37;;
12663;SDS011;6396;58.490;15.528;2023-07-13T11:50:57;3.37;;;1.90;;
12663;SDS011;6396;58.490;15.528;2023-07-13T11:53:30;3.03;;;1.70;;
12663;SDS011;6396;58.490;15.528;2023-07-13T11:56:01;1.90;;;1.67;;
12663;SDS011;6396;58.490;15.528;2023-07-13T11:58:28;4.10;;;1.90;;
12663;SDS011;6396;58.490;15.528;2023-07-13T12:00:55;2.37;;;1.60;;
12663;SDS011;6396;58.490;15.528;2023-07-13T12:03:26;1.73;;;1.60;;
12663;SDS011;6396;58.490;15.528;2023-07-13T12:06:02;3.03;;;2.10;;
12663;SDS011;6396;58.490;15.528;2023-07-13T12:08:32;3.27;;;1.87;;
12663;SDS011;6396;58.490;15.528;2023-07-13T12:11:06;3.10;;;1.53;;
12663;SDS011;6396;58.490;15.528;2023-07-13T12:13:41;2.60;;;1.80;;
12663;SDS011;6396;58.490;15.528;2023-07-13T12:16:14;2.10;;;1.40;;
12663;SDS011;6396;58.490;15.528;2023-07-13T12:19:02;2.93;;;1.60;;
12663;SDS011;6396;58.490;15.528;2023-07-13T12:21:38;4.30;;;1.90;;
12663;SDS011;6396;58.490;15.528;2023-07-13T12:24:29;3.13;;;1.80;;
12663;SDS011;6396;58.490;15.528;2023-07-13T12:27:23;2.87;;;2.07;;
12663;SDS011;6396;58.490;15.528;2023-07-13T12:30:34;3.10;;;1.97;;
12663;SDS011;6396;58.490;15.528;2023-07-13T12:35:52;4.80;;;2.20;;
12663;SDS011;6396;58.490;15.528;2023-07-13T12:38:20;2.67;;;1.83;;
12663;SDS011;6396;58.490;15.528;2023-07-13T12:40:51;4.70;;;1.97;;
12663;SDS011;6396;58.490;15.528;2023-07-13T12:43:19;2.10;;;1.87;;
12663;SDS011;6396;58.490;15.528;2023-07-13T12:45:57;2.83;;;1.80;;
12663;SDS011;6396;58.490;15.528;2023-07-13T12:48:25;2.20;;;1.93;;
12663;SDS011;6396;58.490;15.528;2023-07-13T12:50:54;4.77;;;2.10;;
12663;SDS011;6396;58.490;15.528;2023-07-13T12:53:24;3.57;;;2.17;;
12663;SDS011;6396;58.490;15.528;2023-07-13T12:55:56;3.70;;;1.87;;
12663;SDS011;6396;58.490;15.528;2023-07-13T12:58:26;2.63;;;1.90;;
12663;SDS011;6396;58.490;15.528;2023-07-13T13:00:54;3.03;;;2.13;;
12663;SDS011;6396;58.490;15.528;2023-07-13T13:03:24;3.93;;;1.80;;
12663;SDS011;6396;58.490;15.528;2023-07-13T13:05:57;3.53;;;2.17;;
12663;SDS011;6396;58.490;15.528;2023-07-13T13:08:29;4.83;;;2.30;;
12663;SDS011;6396;58.490;15.528;2023-07-13T13:10:57;3.63;;;2.27;;
12663;SDS011;6396;58.490;15.528;2023-07-13T13:13:23;4.87;;;2.80;;
12663;SDS011;6396;58.490;15.528;2023-07-13T13:15:50;5.10;;;2.40;;
12663;SDS011;6396;58.490;15.528;2023-07-13T13:18:18;3.50;;;1.70;;
12663;SDS011;6396;58.490;15.528;2023-07-13T13:20:46;2.90;;;1.50;;
12663;SDS011;6396;58.490;15.528;2023-07-13T13:23:13;2.23;;;1.63;;
12663;SDS011;6396;58.490;15.528;2023-07-13T13:25:44;3.53;;;1.70;;
12663;SDS011;6396;58.490;15.528;2023-07-13T13:28:13;2.67;;;2.00;;
12663;SDS011;6396;58.490;15.528;2023-07-13T13:30:41;3.33;;;1.83;;
12663;SDS011;6396;58.490;15.528;2023-07-13T13:33:09;3.53;;;1.90;;
12663;SDS011;6396;58.490;15.528;2023-07-13T13:35:38;2.17;;;1.97;;
12663;SDS011;6396;58.490;15.528;2023-07-13T13:38:09;3.60;;;1.90;;
12663;SDS011;6396;58.490;15.528;2023-07-13T13:40:39;3.10;;;1.93;;
12663;SDS011;6396;58.490;15.528;2023-07-13T13:43:17;2.70;;;1.80;;
12663;SDS011;6396;58.490;15.528;2023-07-13T13:45:45;4.07;;;2.37;;
12663;SDS011;6396;58.490;15.528;2023-07-13T13:48:16;2.57;;;2.10;;
12663;SDS011;6396;58.490;15.528;2023-07-13T13:50:45;2.90;;;1.80;;
12663;SDS011;6396;58.490;15.528;2023-07-13T13:53:13;3.43;;;2.10;;
12663;SDS011;6396;58.490;15.528;2023-07-13T13:55:40;3.93;;;1.83;;
12663;SDS011;6396;58.490;15.528;2023-07-13T13:58:09;4.40;;;2.27;;
12663;SDS011;6396;58.490;15.528;2023-07-13T14:00:37;3.27;;;2.23;;
12663;SDS011;6396;58.490;15.528;2023-07-13T14:03:04;2.63;;;1.80;;
12663;SDS011;6396;58.490;15.528;2023-07-13T14:05:34;2.37;;;2.13;;
12663;SDS011;6396;58.490;15.528;2023-07-13T14:08:01;4.33;;;2.10;;
12663;SDS011;6396;58.490;15.528;2023-07-13T14:10:28;3.20;;;2.20;;
12663;SDS011;6396;58.490;15.528;2023-07-13T14:12:56;2.53;;;1.60;;
12663;SDS011;6396;58.490;15.528;2023-07-13T14:15:24;3.67;;;2.00;;
12663;SDS011;6396;58.490;15.528;2023-07-13T14:17:54;3.63;;;1.80;;
12663;SDS011;6396;58.490;15.528;2023-07-13T14:20:23;1.67;;;1.50;;
12663;SDS011;6396;58.490;15.528;2023-07-13T14:22:51;2.73;;;1.80;;
12663;SDS011;6396;58.490;15.528;2023-07-13T14:25:20;1.80;;;1.47;;
12663;SDS011;6396;58.490;15.528;2023-07-13T14:27:48;2.83;;;1.60;;
12663;SDS011;6396;58.490;15.528;2023-07-13T14:30:18;2.70;;;1.60;;
12663;SDS011;6396;58.490;15.528;2023-07-13T14:32:48;2.07;;;1.57;;
12663;SDS011;6396;58.490;15.528;2023-07-13T14:35:18;4.37;;;2.07;;
12663;SDS011;6396;58.490;15.528;2023-07-13T14:37:48;2.20;;;1.60;;
12663;SDS011;6396;58.490;15.528;2023-07-13T14:40:16;1.60;;;1.40;;
12663;SDS011;6396;58.490;15.528;2023-07-13T14:42:44;3.50;;;1.50;;
12663;SDS011;6396;58.490;15.528;2023-07-13T14:45:12;1.40;;;1.30;;
12663;SDS011;6396;58.490;15.528;2023-07-13T14:47:41;5.47;;;1.50;;
12663;SDS011;6396;58.490;15.528;2023-07-13T14:50:12;1.47;;;1.30;;
12663;SDS011;6396;58.490;15.528;2023-07-13T14:52:44;2.60;;;1.30;;
12663;SDS011;6396;58.490;15.528;2023-07-13T14:55:12;1.77;;;1.20;;
12663;SDS011;6396;58.490;15.528;2023-07-13T14:57:42;1.63;;;1.20;;
12663;SDS011;6396;58.490;15.528;2023-07-13T15:03:23;1.40;;;1.13;;
12663;SDS011;6396;58.490;15.528;2023-07-13T15:05:51;2.57;;;1.40;;
12663;SDS011;6396;58.490;15.528;2023-07-13T15:08:20;1.93;;;1.50;;
12663;SDS011;6396;58.490;15.528;2023-07-13T15:10:47;1.67;;;1.30;;
12663;SDS011;6396;58.490;15.528;2023-07-13T15:13:14;2.60;;;1.43;;
12663;SDS011;6396;58.490;15.528;2023-07-13T15:15:45;3.87;;;1.60;;
12663;SDS011;6396;58.490;15.528;2023-07-13T15:18:14;2.27;;;1.50;;